Date,TemperatureHighF,TemperatureAvgF,TemperatureLowF,DewpointHighF,DewpointAvgF,DewpointLowF,HumidityHigh,HumidityAvg,HumidityLow,PressureMaxIn,PressureMinIn,WindSpeedMaxMPH,WindSpeedAvgMPH,GustSpeedMaxMPH,PrecipitationSumIn
2013-7-1,83.4,75.1,69.2,73.5,70.0,67.1,94,85,70,29.91,29.79,4,1,7,0.02
2013-7-2,84.3,75.4,70.3,74.3,70.6,68.2,96,86,68,30.10,29.91,4,1,10,0.03
2013-7-3,83.7,75.9,71.0,75.3,71.5,68.3,94,86,72,30.18,30.09,3,0,7,0.04
2013-7-4,88.3,78.9,68.0,77.5,71.6,66.5,96,79,60,30.20,30.10,4,1,13,0.01
2013-7-5,89.7,78.9,66.6,76.6,71.0,65.1,97,78,57,30.18,30.06,4,1,10,0.00
2013-7-6,92.1,81.4,69.6,74.9,71.3,67.0,94,73,52,30.15,30.00,3,1,10,0.00
2013-7-7,89.8,76.1,68.6,76.4,69.8,66.5,96,82,60,30.06,29.95,11,1,17,0.09
2013-7-8,87.7,75.5,64.4,71.5,67.7,63.2,97,79,52,30.09,30.00,6,1,10,0.00
2013-7-9,87.6,76.2,68.3,73.5,69.6,65.9,94,81,59,30.08,29.95,3,0,9,0.00
2013-7-10,87.4,77.2,70.8,76.3,71.6,66.7,95,83,65,29.97,29.81,8,1,15,0.28
2013-7-11,83.1,76.1,70.0,70.5,67.9,63.8,93,77,60,29.90,29.82,5,1,8,0.00
2013-7-12,73.8,66.0,64.3,65.6,63.6,62.8,95,92,72,29.97,29.89,2,0,5,0.43
2013-7-13,82.7,74.3,67.5,72.8,69.4,65.9,95,85,67,30.22,30.08,2,0,10,0.00
2013-7-14,80.4,72.0,67.8,73.7,69.9,66.5,97,93,79,30.29,30.22,2,0,6,0.01
2013-7-15,93.8,82.2,63.2,76.7,71.6,62.0,97,73,49,30.29,30.17,3,1,6,0.00
2013-7-16,94.5,81.3,69.8,78.4,72.3,67.8,94,76,49,30.24,30.14,3,0,7,0.00
2013-7-17,95.3,83.5,72.5,76.9,73.1,69.5,92,73,47,30.20,30.05,5,1,10,0.00
2013-7-18,96.8,82.8,72.1,78.2,74.1,70.0,94,77,49,30.10,29.98,4,1,7,0.00
2013-7-19,97.3,83.3,72.0,78.8,73.5,67.7,96,74,46,29.97,29.83,8,1,15,0.22
2013-7-20,93.0,81.1,71.2,76.3,71.7,67.1,91,75,50,29.87,29.75,7,1,10,0.00
2013-7-21,87.9,75.8,68.1,72.8,69.8,66.2,95,83,58,29.92,29.85,4,1,7,0.00
2013-7-22,87.2,74.0,66.2,75.9,70.4,65.0,97,89,64,29.91,29.72,11,1,17,0.84
2013-7-23,86.3,76.4,69.7,72.3,69.6,63.9,97,81,57,29.74,29.63,9,2,14,0.15
2013-7-24,81.3,72.4,61.9,69.0,63.8,58.3,95,76,51,29.91,29.66,8,1,9,0.01
2013-7-25,78.9,67.1,57.3,59.8,56.1,51.6,93,70,44,30.03,29.90,3,1,7,0.00
2013-7-26,83.4,67.8,52.4,63.7,57.8,51.0,97,74,41,30.09,29.99,4,0,6,0.00
2013-7-27,80.9,68.9,58.0,71.3,65.0,56.3,97,88,68,30.01,29.88,4,0,10,0.20
2013-7-28,84.5,72.3,62.3,70.8,67.0,60.2,97,84,59,29.98,29.84,4,0,8,0.13
2013-7-29,79.3,67.1,54.2,60.9,57.1,52.4,96,73,45,30.15,29.97,6,1,11,0.01
2013-7-30,81.0,67.7,53.0,65.8,59.1,51.3,96,76,52,30.21,30.11,3,0,7,0.00
2013-7-31,78.6,67.7,58.4,69.7,63.7,57.0,98,87,71,30.12,29.97,3,0,6,0.44